sensor_id;sensor_type;location;lat;lon;timestamp;P1;durP1;ratioP1;P2;durP2;ratioP2
8102;SDS011;4094;49.948;11.574;2022-12-18T00:00:26;50.07;;;34.20;;
8102;SDS011;4094;49.948;11.574;2022-12-18T00:02:55;46.23;;;32.17;;
8102;SDS011;4094;49.948;11.574;2022-12-18T00:05:25;47.80;;;34.83;;
8102;SDS011;4094;49.948;11.574;2022-12-18T00:07:55;44.50;;;32.00;;
8102;SDS011;4094;49.948;11.574;2022-12-18T00:10:24;35.77;;;29.33;;
8102;SDS011;4094;49.948;11.574;2022-12-18T00:12:53;33.17;;;24.67;;
8102;SDS011;4094;49.948;11.574;2022-12-18T00:15:23;34.50;;;25.60;;
8102;SDS011;4094;49.948;11.574;2022-12-18T00:17:52;33.03;;;25.57;;
8102;SDS011;4094;49.948;11.574;2022-12-18T00:20:21;35.07;;;24.50;;
8102;SDS011;4094;49.948;11.574;2022-12-18T00:22:52;32.07;;;25.30;;
8102;SDS011;4094;49.948;11.574;2022-12-18T00:25:24;33.23;;;26.33;;
8102;SDS011;4094;49.948;11.574;2022-12-18T00:27:53;36.20;;;28.23;;
8102;SDS011;4094;49.948;11.574;2022-12-18T00:30:22;42.27;;;29.57;;
8102;SDS011;4094;49.948;11.574;2022-12-18T00:32:51;41.60;;;30.33;;
8102;SDS011;4094;49.948;11.574;2022-12-18T00:35:20;38.83;;;29.43;;
8102;SDS011;4094;49.948;11.574;2022-12-18T00:37:50;44.87;;;29.80;;
8102;SDS011;4094;49.948;11.574;2022-12-18T00:40:19;43.67;;;31.03;;
8102;SDS011;4094;49.948;11.574;2022-12-18T00:42:50;45.80;;;32.50;;
8102;SDS011;4094;49.948;11.574;2022-12-18T00:45:24;44.87;;;30.80;;
8102;SDS011;4094;49.948;11.574;2022-12-18T00:47:54;45.07;;;30.93;;
8102;SDS011;4094;49.948;11.574;2022-12-18T00:50:24;46.73;;;32.60;;
8102;SDS011;4094;49.948;11.574;2022-12-18T00:52:54;45.60;;;31.40;;
8102;SDS011;4094;49.948;11.574;2022-12-18T00:55:23;44.47;;;31.23;;
8102;SDS011;4094;49.948;11.574;2022-12-18T00:57:54;43.37;;;31.20;;
8102;SDS011;4094;49.948;11.574;2022-12-18T01:00:23;44.30;;;31.40;;
8102;SDS011;4094;49.948;11.574;2022-12-18T01:02:53;44.63;;;31.77;;
8102;SDS011;4094;49.948;11.574;2022-12-18T01:05:22;42.67;;;30.23;;
8102;SDS011;4094;49.948;11.574;2022-12-18T01:07:52;40.07;;;29.50;;
8102;SDS011;4094;49.948;11.574;2022-12-18T01:10:21;42.00;;;30.20;;
8102;SDS011;4094;49.948;11.574;2022-12-18T01:12:51;40.27;;;28.90;;
8102;SDS011;4094;49.948;11.574;2022-12-18T01:15:22;41.70;;;28.97;;
8102;SDS011;4094;49.948;11.574;2022-12-18T01:17:51;38.37;;;28.40;;
8102;SDS011;4094;49.948;11.574;2022-12-18T01:20:21;41.80;;;28.37;;
8102;SDS011;4094;49.948;11.574;2022-12-18T01:22:51;39.97;;;28.80;;
8102;SDS011;4094;49.948;11.574;2022-12-18T01:25:20;41.53;;;29.43;;
8102;SDS011;4094;49.948;11.574;2022-12-18T01:27:50;40.47;;;30.07;;
8102;SDS011;4094;49.948;11.574;2022-12-18T01:30:21;40.17;;;29.40;;
8102;SDS011;4094;49.948;11.574;2022-12-18T01:32:50;36.83;;;27.33;;
8102;SDS011;4094;49.948;11.574;2022-12-18T01:35:19;38.53;;;28.33;;
8102;SDS011;4094;49.948;11.574;2022-12-18T01:37:48;43.07;;;29.23;;
8102;SDS011;4094;49.948;11.574;2022-12-18T01:40:20;42.43;;;30.07;;
8102;SDS011;4094;49.948;11.574;2022-12-18T01:42:51;39.57;;;27.93;;
8102;SDS011;4094;49.948;11.574;2022-12-18T01:45:23;45.10;;;29.80;;
8102;SDS011;4094;49.948;11.574;2022-12-18T01:47:55;43.93;;;29.00;;
8102;SDS011;4094;49.948;11.574;2022-12-18T01:50:27;40.00;;;28.83;;
8102;SDS011;4094;49.948;11.574;2022-12-18T01:53:02;43.00;;;29.30;;
8102;SDS011;4094;49.948;11.574;2022-12-18T01:55:36;41.33;;;28.00;;
8102;SDS011;4094;49.948;11.574;2022-12-18T01:58:13;42.97;;;29.80;;
8102;SDS011;4094;49.948;11.574;2022-12-18T02:00:45;35.37;;;28.73;;
8102;SDS011;4094;49.948;11.574;2022-12-18T02:03:15;39.47;;;29.27;;
8102;SDS011;4094;49.948;11.574;2022-12-18T02:05:46;43.53;;;30.33;;
8102;SDS011;4094;49.948;11.574;2022-12-18T02:08:21;39.50;;;28.63;;
8102;SDS011;4094;49.948;11.574;2022-12-18T02:10:57;40.10;;;29.23;;
8102;SDS011;4094;49.948;11.574;2022-12-18T02:13:36;42.23;;;29.70;;
8102;SDS011;4094;49.948;11.574;2022-12-18T02:16:15;46.63;;;29.87;;
8102;SDS011;4094;49.948;11.574;2022-12-18T02:18:53;41.90;;;29.57;;
8102;SDS011;4094;49.948;11.574;2022-12-18T02:21:28;42.03;;;30.10;;
8102;SDS011;4094;49.948;11.574;2022-12-18T02:24:12;37.40;;;28.43;;
8102;SDS011;4094;49.948;11.574;2022-12-18T02:26:48;38.00;;;28.93;;
8102;SDS011;4094;49.948;11.574;2022-12-18T02:29:22;39.53;;;29.07;;
8102;SDS011;4094;49.948;11.574;2022-12-18T02:31:57;38.67;;;29.43;;
8102;SDS011;4094;49.948;11.574;2022-12-18T02:34:29;40.33;;;28.97;;
8102;SDS011;4094;49.948;11.574;2022-12-18T02:37:03;40.07;;;28.13;;
8102;SDS011;4094;49.948;11.574;2022-12-18T02:39:37;41.90;;;29.57;;
8102;SDS011;4094;49.948;11.574;2022-12-18T02:42:12;38.00;;;27.60;;
8102;SDS011;4094;49.948;11.574;2022-12-18T02:44:42;36.93;;;27.27;;
8102;SDS011;4094;49.948;11.574;2022-12-18T02:47:15;37.67;;;28.40;;
8102;SDS011;4094;49.948;11.574;2022-12-18T02:49:49;40.90;;;28.80;;
8102;SDS011;4094;49.948;11.574;2022-12-18T02:52:31;36.40;;;27.03;;
8102;SDS011;4094;49.948;11.574;2022-12-18T02:55:13;37.53;;;27.40;;
8102;SDS011;4094;49.948;11.574;2022-12-18T02:57:59;40.10;;;27.87;;
8102;SDS011;4094;49.948;11.574;2022-12-18T03:00:37;36.97;;;26.73;;
8102;SDS011;4094;49.948;11.574;2022-12-18T03:03:11;38.47;;;27.30;;
8102;SDS011;4094;49.948;11.574;2022-12-18T03:05:49;35.43;;;26.80;;
8102;SDS011;4094;49.948;11.574;2022-12-18T03:08:24;37.60;;;27.87;;
8102;SDS011;4094;49.948;11.574;2022-12-18T03:10:58;36.83;;;27.37;;
8102;SDS011;4094;49.948;11.574;2022-12-18T03:13:35;37.50;;;26.77;;
8102;SDS011;4094;49.948;11.574;2022-12-18T03:16:10;39.93;;;27.50;;
8102;SDS011;4094;49.948;11.574;2022-12-18T03:18:45;38.83;;;27.07;;
8102;SDS011;4094;49.948;11.574;2022-12-18T03:21:17;39.97;;;28.47;;
8102;SDS011;4094;49.948;11.574;2022-12-18T03:23:51;34.37;;;26.20;;
8102;SDS011;4094;49.948;11.574;2022-12-18T03:26:25;36.00;;;25.60;;
8102;SDS011;4094;49.948;11.574;2022-12-18T03:29:02;37.30;;;25.97;;
8102;SDS011;4094;49.948;11.574;2022-12-18T03:31:36;34.70;;;26.63;;
8102;SDS011;4094;49.948;11.574;2022-12-18T03:34:09;39.00;;;27.70;;
8102;SDS011;4094;49.948;11.574;2022-12-18T03:36:45;37.20;;;27.17;;
8102;SDS011;4094;49.948;11.574;2022-12-18T03:39:15;37.77;;;25.60;;
8102;SDS011;4094;49.948;11.574;2022-12-18T03:41:52;38.47;;;27.20;;
8102;SDS011;4094;49.948;11.574;2022-12-18T03:44:35;37.67;;;27.30;;
8102;SDS011;4094;49.948;11.574;2022-12-18T03:47:12;36.40;;;25.87;;
8102;SDS011;4094;49.948;11.574;2022-12-18T03:49:46;33.33;;;25.50;;
8102;SDS011;4094;49.948;11.574;2022-12-18T03:52:20;33.40;;;25.77;;
8102;SDS011;4094;49.948;11.574;2022-12-18T03:54:55;34.50;;;25.33;;
8102;SDS011;4094;49.948;11.574;2022-12-18T03:57:29;33.60;;;25.90;;
8102;SDS011;4094;49.948;11.574;2022-12-18T04:00:06;34.40;;;24.17;;
8102;SDS011;4094;49.948;11.574;2022-12-18T04:02:42;31.40;;;24.73;;
8102;SDS011;4094;49.948;11.574;2022-12-18T04:05:22;31.93;;;24.67;;
8102;SDS011;4094;49.948;11.574;2022-12-18T04:07:54;31.83;;;24.93;;
8102;SDS011;4094;49.948;11.574;2022-12-18T04:10:26;30.37;;;23.43;;
8102;SDS011;4094;49.948;11.574;2022-12-18T04:12:58;33.00;;;23.57;;
8102;SDS011;4094;49.948;11.574;2022-12-18T04:15:29;29.47;;;24.40;;
8102;SDS011;4094;49.948;11.574;2022-12-18T04:18:01;32.67;;;24.90;;
8102;SDS011;4094;49.948;11.574;2022-12-18T04:20:39;32.73;;;24.77;;
8102;SDS011;4094;49.948;11.574;2022-12-18T04:23:08;33.83;;;23.60;;
8102;SDS011;4094;49.948;11.574;2022-12-18T04:25:39;29.97;;;24.33;;
8102;SDS011;4094;49.948;11.574;2022-12-18T04:28:12;33.03;;;23.93;;
8102;SDS011;4094;49.948;11.574;2022-12-18T04:30:44;32.57;;;24.03;;
8102;SDS011;4094;49.948;11.574;2022-12-18T04:33:19;32.10;;;24.37;;
8102;SDS011;4094;49.948;11.574;2022-12-18T04:35:48;31.93;;;23.93;;
8102;SDS011;4094;49.948;11.574;2022-12-18T04:38:18;31.63;;;24.33;;
8102;SDS011;4094;49.948;11.574;2022-12-18T04:40:52;30.97;;;23.27;;
8102;SDS011;4094;49.948;11.574;2022-12-18T04:43:26;29.70;;;22.57;;
8102;SDS011;4094;49.948;11.574;2022-12-18T04:46:02;29.10;;;23.17;;
8102;SDS011;4094;49.948;11.574;2022-12-18T04:48:32;30.90;;;24.27;;
8102;SDS011;4094;49.948;11.574;2022-12-18T04:51:02;33.43;;;23.93;;
8102;SDS011;4094;49.948;11.574;2022-12-18T04:53:31;32.40;;;22.77;;
8102;SDS011;4094;49.948;11.574;2022-12-18T04:56:02;35.27;;;24.43;;
8102;SDS011;4094;49.948;11.574;2022-12-18T04:58:36;29.30;;;22.67;;
8102;SDS011;4094;49.948;11.574;2022-12-18T05:01:08;33.80;;;23.97;;
8102;SDS011;4094;49.948;11.574;2022-12-18T05:03:38;29.83;;;23.07;;
8102;SDS011;4094;49.948;11.574;2022-12-18T05:06:08;30.03;;;23.00;;
8102;SDS011;4094;49.948;11.574;2022-12-18T05:08:38;33.17;;;23.47;;
8102;SDS011;4094;49.948;11.574;2022-12-18T05:11:08;32.30;;;24.50;;
8102;SDS011;4094;49.948;11.574;2022-12-18T05:13:41;32.33;;;24.73;;
8102;SDS011;4094;49.948;11.574;2022-12-18T05:16:13;29.80;;;23.30;;
8102;SDS011;4094;49.948;11.574;2022-12-18T05:18:43;30.37;;;23.67;;
8102;SDS011;4094;49.948;11.574;2022-12-18T05:21:16;32.53;;;24.43;;
8102;SDS011;4094;49.948;11.574;2022-12-18T05:23:45;30.57;;;25.10;;
8102;SDS011;4094;49.948;11.574;2022-12-18T05:26:14;31.20;;;21.60;;
8102;SDS011;4094;49.948;11.574;2022-12-18T05:28:45;30.40;;;23.93;;
8102;SDS011;4094;49.948;11.574;2022-12-18T05:31:16;33.20;;;23.00;;
8102;SDS011;4094;49.948;11.574;2022-12-18T05:33:45;32.73;;;24.67;;
8102;SDS011;4094;49.948;11.574;2022-12-18T05:36:16;33.27;;;24.07;;
8102;SDS011;4094;49.948;11.574;2022-12-18T05:38:45;33.87;;;24.80;;
8102;SDS011;4094;49.948;11.574;2022-12-18T05:41:14;31.80;;;24.20;;
8102;SDS011;4094;49.948;11.574;2022-12-18T05:43:44;31.57;;;23.93;;
8102;SDS011;4094;49.948;11.574;2022-12-18T05:46:14;31.33;;;24.73;;
8102;SDS011;4094;49.948;11.574;2022-12-18T05:48:46;33.00;;;23.47;;
8102;SDS011;4094;49.948;11.574;2022-12-18T05:51:15;35.70;;;25.00;;
8102;SDS011;4094;49.948;11.574;2022-12-18T05:53:47;35.50;;;25.40;;
8102;SDS011;4094;49.948;11.574;2022-12-18T05:56:18;34.43;;;25.27;;
8102;SDS011;4094;49.948;11.574;2022-12-18T05:58:50;33.67;;;24.23;;
8102;SDS011;4094;49.948;11.574;2022-12-18T06:01:22;33.97;;;25.63;;
8102;SDS011;4094;49.948;11.574;2022-12-18T06:03:54;32.80;;;24.97;;
8102;SDS011;4094;49.948;11.574;2022-12-18T06:06:24;34.30;;;23.50;;
8102;SDS011;4094;49.948;11.574;2022-12-18T06:08:55;38.73;;;26.20;;
8102;SDS011;4094;49.948;11.574;2022-12-18T06:11:25;33.23;;;24.07;;
8102;SDS011;4094;49.948;11.574;2022-12-18T06:13:55;34.40;;;25.30;;
8102;SDS011;4094;49.948;11.574;2022-12-18T06:16:28;33.60;;;24.83;;
8102;SDS011;4094;49.948;11.574;2022-12-18T06:18:59;33.73;;;24.20;;
8102;SDS011;4094;49.948;11.574;2022-12-18T06:21:30;36.73;;;26.40;;
8102;SDS011;4094;49.948;11.574;2022-12-18T06:24:00;30.53;;;24.40;;
8102;SDS011;4094;49.948;11.574;2022-12-18T06:26:30;32.63;;;24.23;;
8102;SDS011;4094;49.948;11.574;2022-12-18T06:28:59;30.93;;;25.00;;
8102;SDS011;4094;49.948;11.574;2022-12-18T06:31:30;32.83;;;24.23;;
8102;SDS011;4094;49.948;11.574;2022-12-18T06:34:01;35.67;;;24.93;;
8102;SDS011;4094;49.948;11.574;2022-12-18T06:36:31;33.90;;;24.33;;
8102;SDS011;4094;49.948;11.574;2022-12-18T06:39:01;31.10;;;23.70;;
8102;SDS011;4094;49.948;11.574;2022-12-18T06:41:30;36.27;;;25.53;;
8102;SDS011;4094;49.948;11.574;2022-12-18T06:43:59;33.53;;;24.73;;
8102;SDS011;4094;49.948;11.574;2022-12-18T06:46:30;31.10;;;23.90;;
8102;SDS011;4094;49.948;11.574;2022-12-18T06:48:59;34.20;;;24.77;;
8102;SDS011;4094;49.948;11.574;2022-12-18T06:51:28;34.13;;;24.00;;
8102;SDS011;4094;49.948;11.574;2022-12-18T06:53:57;35.03;;;23.80;;
8102;SDS011;4094;49.948;11.574;2022-12-18T06:56:29;33.73;;;25.13;;
8102;SDS011;4094;49.948;11.574;2022-12-18T06:58:59;30.50;;;23.57;;
8102;SDS011;4094;49.948;11.574;2022-12-18T07:01:29;30.53;;;23.43;;
8102;SDS011;4094;49.948;11.574;2022-12-18T07:03:59;35.27;;;24.30;;
8102;SDS011;4094;49.948;11.574;2022-12-18T07:06:29;35.00;;;24.37;;
8102;SDS011;4094;49.948;11.574;2022-12-18T07:08:59;34.03;;;25.07;;
8102;SDS011;4094;49.948;11.574;2022-12-18T07:11:28;30.33;;;22.33;;
8102;SDS011;4094;49.948;11.574;2022-12-18T07:13:57;32.57;;;22.13;;
8102;SDS011;4094;49.948;11.574;2022-12-18T07:16:30;27.23;;;20.73;;
8102;SDS011;4094;49.948;11.574;2022-12-18T07:18:59;27.40;;;22.57;;
8102;SDS011;4094;49.948;11.574;2022-12-18T07:21:29;27.13;;;20.70;;
8102;SDS011;4094;49.948;11.574;2022-12-18T07:23:58;26.53;;;21.10;;
8102;SDS011;4094;49.948;11.574;2022-12-18T07:26:27;23.07;;;20.30;;
8102;SDS011;4094;49.948;11.574;2022-12-18T07:28:57;22.37;;;19.23;;
8102;SDS011;4094;49.948;11.574;2022-12-18T07:31:27;23.50;;;19.37;;
8102;SDS011;4094;49.948;11.574;2022-12-18T07:33:58;22.20;;;18.87;;
8102;SDS011;4094;49.948;11.574;2022-12-18T07:36:28;21.77;;;18.67;;
8102;SDS011;4094;49.948;11.574;2022-12-18T07:38:57;22.30;;;18.90;;
8102;SDS011;4094;49.948;11.574;2022-12-18T07:41:26;21.57;;;19.23;;
8102;SDS011;4094;49.948;11.574;2022-12-18T07:43:55;22.67;;;19.47;;
8102;SDS011;4094;49.948;11.574;2022-12-18T07:46:24;22.20;;;19.23;;
8102;SDS011;4094;49.948;11.574;2022-12-18T07:48:53;21.63;;;18.57;;
8102;SDS011;4094;49.948;11.574;2022-12-18T07:51:23;25.00;;;19.23;;
8102;SDS011;4094;49.948;11.574;2022-12-18T07:53:52;25.17;;;19.23;;
8102;SDS011;4094;49.948;11.574;2022-12-18T07:56:21;23.27;;;19.70;;
8102;SDS011;4094;49.948;11.574;2022-12-18T07:58:55;26.77;;;21.53;;
8102;SDS011;4094;49.948;11.574;2022-12-18T08:01:24;26.60;;;21.03;;
8102;SDS011;4094;49.948;11.574;2022-12-18T08:03:54;26.03;;;19.90;;
8102;SDS011;4094;49.948;11.574;2022-12-18T08:06:25;23.93;;;19.53;;
8102;SDS011;4094;49.948;11.574;2022-12-18T08:08:55;24.40;;;19.67;;
8102;SDS011;4094;49.948;11.574;2022-12-18T08:11:25;21.93;;;19.43;;
8102;SDS011;4094;49.948;11.574;2022-12-18T08:13:56;24.80;;;20.33;;
8102;SDS011;4094;49.948;11.574;2022-12-18T08:16:25;21.40;;;19.10;;
8102;SDS011;4094;49.948;11.574;2022-12-18T08:18:55;25.23;;;20.07;;
8102;SDS011;4094;49.948;11.574;2022-12-18T08:21:26;23.23;;;19.80;;
8102;SDS011;4094;49.948;11.574;2022-12-18T08:23:57;26.03;;;20.97;;
8102;SDS011;4094;49.948;11.574;2022-12-18T08:26:28;25.20;;;19.77;;
8102;SDS011;4094;49.948;11.574;2022-12-18T08:28:59;22.83;;;20.07;;
8102;SDS011;4094;49.948;11.574;2022-12-18T08:31:29;23.10;;;19.20;;
8102;SDS011;4094;49.948;11.574;2022-12-18T08:34:00;21.23;;;18.93;;
8102;SDS011;4094;49.948;11.574;2022-12-18T08:36:31;24.53;;;20.77;;
8102;SDS011;4094;49.948;11.574;2022-12-18T08:39:05;25.33;;;19.50;;
8102;SDS011;4094;49.948;11.574;2022-12-18T08:41:34;20.80;;;18.10;;
8102;SDS011;4094;49.948;11.574;2022-12-18T08:44:03;23.50;;;19.27;;
8102;SDS011;4094;49.948;11.574;2022-12-18T08:47:08;23.00;;;19.30;;
8102;SDS011;4094;49.948;11.574;2022-12-18T08:49:37;21.97;;;19.60;;
8102;SDS011;4094;49.948;11.574;2022-12-18T08:52:08;23.47;;;19.23;;
8102;SDS011;4094;49.948;11.574;2022-12-18T08:54:40;22.07;;;19.00;;
8102;SDS011;4094;49.948;11.574;2022-12-18T08:57:10;21.43;;;18.80;;
8102;SDS011;4094;49.948;11.574;2022-12-18T08:59:39;22.47;;;19.50;;
8102;SDS011;4094;49.948;11.574;2022-12-18T09:02:09;21.33;;;19.13;;
8102;SDS011;4094;49.948;11.574;2022-12-18T09:04:39;22.10;;;19.27;;
8102;SDS011;4094;49.948;11.574;2022-12-18T09:07:10;22.20;;;19.30;;
8102;SDS011;4094;49.948;11.574;2022-12-18T09:09:39;20.83;;;18.63;;
8102;SDS011;4094;49.948;11.574;2022-12-18T09:12:08;23.67;;;19.07;;
8102;SDS011;4094;49.948;11.574;2022-12-18T09:14:38;21.33;;;18.97;;
8102;SDS011;4094;49.948;11.574;2022-12-18T09:17:07;20.67;;;18.67;;
8102;SDS011;4094;49.948;11.574;2022-12-18T09:19:36;22.17;;;19.00;;
8102;SDS011;4094;49.948;11.574;2022-12-18T09:22:05;21.73;;;19.43;;
8102;SDS011;4094;49.948;11.574;2022-12-18T09:24:36;22.30;;;18.70;;
8102;SDS011;4094;49.948;11.574;2022-12-18T09:27:05;21.50;;;19.30;;
8102;SDS011;4094;49.948;11.574;2022-12-18T09:29:35;20.70;;;18.70;;
8102;SDS011;4094;49.948;11.574;2022-12-18T09:32:04;19.70;;;17.67;;
8102;SDS011;4094;49.948;11.574;2022-12-18T09:34:33;20.93;;;18.83;;
8102;SDS011;4094;49.948;11.574;2022-12-18T09:37:03;20.87;;;18.87;;
8102;SDS011;4094;49.948;11.574;2022-12-18T09:39:32;20.50;;;18.37;;
8102;SDS011;4094;49.948;11.574;2022-12-18T09:42:09;21.53;;;19.43;;
8102;SDS011;4094;49.948;11.574;2022-12-18T09:44:49;21.57;;;19.37;;
8102;SDS011;4094;49.948;11.574;2022-12-18T09:47:21;20.37;;;18.27;;
8102;SDS011;4094;49.948;11.574;2022-12-18T09:49:55;19.67;;;17.67;;
8102;SDS011;4094;49.948;11.574;2022-12-18T09:52:29;19.77;;;17.97;;
8102;SDS011;4094;49.948;11.574;2022-12-18T09:55:03;20.70;;;18.70;;
8102;SDS011;4094;49.948;11.574;2022-12-18T09:57:42;20.17;;;18.17;;
8102;SDS011;4094;49.948;11.574;2022-12-18T10:00:18;19.70;;;17.83;;
8102;SDS011;4094;49.948;11.574;2022-12-18T10:02:49;20.00;;;18.00;;
8102;SDS011;4094;49.948;11.574;2022-12-18T10:05:24;20.10;;;17.93;;
8102;SDS011;4094;49.948;11.574;2022-12-18T10:08:04;18.87;;;17.17;;
8102;SDS011;4094;49.948;11.574;2022-12-18T10:10:38;20.17;;;18.20;;
8102;SDS011;4094;49.948;11.574;2022-12-18T10:13:16;19.77;;;17.77;;
8102;SDS011;4094;49.948;11.574;2022-12-18T10:15:55;19.17;;;17.37;;
8102;SDS011;4094;49.948;11.574;2022-12-18T10:18:36;19.47;;;17.67;;
8102;SDS011;4094;49.948;11.574;2022-12-18T10:21:21;21.50;;;19.40;;
8102;SDS011;4094;49.948;11.574;2022-12-18T10:23:56;19.90;;;18.00;;
8102;SDS011;4094;49.948;11.574;2022-12-18T10:26:37;20.07;;;18.07;;
8102;SDS011;4094;49.948;11.574;2022-12-18T10:29:09;19.00;;;17.30;;
8102;SDS011;4094;49.948;11.574;2022-12-18T10:31:40;21.83;;;19.83;;
8102;SDS011;4094;49.948;11.574;2022-12-18T10:34:10;21.33;;;19.37;;
8102;SDS011;4094;49.948;11.574;2022-12-18T10:36:43;18.33;;;16.67;;
8102;SDS011;4094;49.948;11.574;2022-12-18T10:39:14;18.17;;;16.43;;
8102;SDS011;4094;49.948;11.574;2022-12-18T10:41:44;18.63;;;16.83;;
8102;SDS011;4094;49.948;11.574;2022-12-18T10:44:18;17.77;;;16.27;;
8102;SDS011;4094;49.948;11.574;2022-12-18T10:46:49;16.73;;;15.23;;
8102;SDS011;4094;49.948;11.574;2022-12-18T10:49:21;19.00;;;17.20;;
8102;SDS011;4094;49.948;11.574;2022-12-18T10:52:03;18.47;;;16.73;;
8102;SDS011;4094;49.948;11.574;2022-12-18T10:54:40;17.23;;;15.60;;
8102;SDS011;4094;49.948;11.574;2022-12-18T10:57:15;18.50;;;16.70;;
8102;SDS011;4094;49.948;11.574;2022-12-18T10:59:53;17.87;;;16.27;;
8102;SDS011;4094;49.948;11.574;2022-12-18T11:02:25;17.67;;;15.97;;
8102;SDS011;4094;49.948;11.574;2022-12-18T11:05:10;16.77;;;15.30;;
8102;SDS011;4094;49.948;11.574;2022-12-18T11:07:53;16.97;;;15.37;;
8102;SDS011;4094;49.948;11.574;2022-12-18T11:10:25;15.93;;;14.53;;
8102;SDS011;4094;49.948;11.574;2022-12-18T11:13:09;15.83;;;14.37;;
8102;SDS011;4094;49.948;11.574;2022-12-18T11:15:47;16.00;;;14.50;;
8102;SDS011;4094;49.948;11.574;2022-12-18T11:18:17;16.20;;;14.60;;
8102;SDS011;4094;49.948;11.574;2022-12-18T11:20:51;15.73;;;14.23;;
8102;SDS011;4094;49.948;11.574;2022-12-18T11:23:25;14.47;;;13.17;;
8102;SDS011;4094;49.948;11.574;2022-12-18T11:25:56;15.20;;;13.80;;
8102;SDS011;4094;49.948;11.574;2022-12-18T11:28:37;14.07;;;12.77;;
8102;SDS011;4094;49.948;11.574;2022-12-18T11:31:16;14.33;;;13.03;;
8102;SDS011;4094;49.948;11.574;2022-12-18T11:33:50;14.03;;;12.73;;
8102;SDS011;4094;49.948;11.574;2022-12-18T11:36:45;13.73;;;12.33;;
8102;SDS011;4094;49.948;11.574;2022-12-18T11:39:17;13.80;;;12.37;;
8102;SDS011;4094;49.948;11.574;2022-12-18T11:41:50;13.63;;;12.30;;
8102;SDS011;4094;49.948;11.574;2022-12-18T11:44:45;14.00;;;12.70;;
8102;SDS011;4094;49.948;11.574;2022-12-18T11:47:21;12.37;;;11.17;;
8102;SDS011;4094;49.948;11.574;2022-12-18T11:50:10;12.80;;;11.60;;
8102;SDS011;4094;49.948;11.574;2022-12-18T11:52:43;13.03;;;11.80;;
8102;SDS011;4094;49.948;11.574;2022-12-18T11:55:19;12.90;;;11.70;;
8102;SDS011;4094;49.948;11.574;2022-12-18T11:58:00;13.03;;;11.73;;
8102;SDS011;4094;49.948;11.574;2022-12-18T12:00:39;13.47;;;12.17;;
8102;SDS011;4094;49.948;11.574;2022-12-18T12:03:21;13.47;;;12.17;;
8102;SDS011;4094;49.948;11.574;2022-12-18T12:06:06;14.00;;;12.70;;
8102;SDS011;4094;49.948;11.574;2022-12-18T12:08:46;14.17;;;12.77;;
8102;SDS011;4094;49.948;11.574;2022-12-18T12:11:24;15.03;;;13.63;;
8102;SDS011;4094;49.948;11.574;2022-12-18T12:14:06;14.93;;;13.53;;
8102;SDS011;4094;49.948;11.574;2022-12-18T12:16:44;14.93;;;13.53;;
8102;SDS011;4094;49.948;11.574;2022-12-18T12:19:25;15.60;;;14.20;;
8102;SDS011;4094;49.948;11.574;2022-12-18T12:22:03;15.80;;;14.27;;
8102;SDS011;4094;49.948;11.574;2022-12-18T12:24:43;17.23;;;15.63;;
8102;SDS011;4094;49.948;11.574;2022-12-18T12:27:24;16.23;;;14.73;;
8102;SDS011;4094;49.948;11.574;2022-12-18T12:30:05;16.60;;;15.10;;
8102;SDS011;4094;49.948;11.574;2022-12-18T12:32:40;17.30;;;15.53;;
8102;SDS011;4094;49.948;11.574;2022-12-18T12:35:24;16.53;;;15.00;;
8102;SDS011;4094;49.948;11.574;2022-12-18T12:38:03;17.03;;;15.53;;
8102;SDS011;4094;49.948;11.574;2022-12-18T12:40:39;16.80;;;15.40;;
8102;SDS011;4094;49.948;11.574;2022-12-18T12:43:31;17.20;;;15.60;;
8102;SDS011;4094;49.948;11.574;2022-12-18T12:46:10;18.07;;;16.40;;
8102;SDS011;4094;49.948;11.574;2022-12-18T12:48:42;19.03;;;17.13;;
8102;SDS011;4094;49.948;11.574;2022-12-18T12:51:17;18.13;;;16.50;;
8102;SDS011;4094;49.948;11.574;2022-12-18T12:53:49;18.47;;;16.67;;
8102;SDS011;4094;49.948;11.574;2022-12-18T12:56:20;17.40;;;15.80;;
8102;SDS011;4094;49.948;11.574;2022-12-18T12:58:55;17.27;;;15.63;;
8102;SDS011;4094;49.948;11.574;2022-12-18T13:01:33;17.73;;;16.17;;
8102;SDS011;4094;49.948;11.574;2022-12-18T13:04:10;18.73;;;16.93;;
8102;SDS011;4094;49.948;11.574;2022-12-18T13:06:53;18.10;;;16.30;;
8102;SDS011;4094;49.948;11.574;2022-12-18T13:09:30;17.90;;;16.10;;
8102;SDS011;4094;49.948;11.574;2022-12-18T13:12:20;17.50;;;15.90;;
8102;SDS011;4094;49.948;11.574;2022-12-18T13:15:13;17.03;;;15.50;;
8102;SDS011;4094;49.948;11.574;2022-12-18T13:17:51;17.13;;;15.67;;
8102;SDS011;4094;49.948;11.574;2022-12-18T13:20:33;16.77;;;15.27;;
8102;SDS011;4094;49.948;11.574;2022-12-18T13:25:58;17.17;;;15.57;;
8102;SDS011;4094;49.948;11.574;2022-12-18T13:34:43;17.23;;;15.63;;
8102;SDS011;4094;49.948;11.574;2022-12-18T13:43:30;17.30;;;15.80;;
8102;SDS011;4094;49.948;11.574;2022-12-18T13:46:17;16.67;;;15.17;;
8102;SDS011;4094;49.948;11.574;2022-12-18T13:48:54;17.83;;;16.07;;
8102;SDS011;4094;49.948;11.574;2022-12-18T13:51:26;19.10;;;17.27;;
8102;SDS011;4094;49.948;11.574;2022-12-18T13:53:58;19.00;;;17.10;;
8102;SDS011;4094;49.948;11.574;2022-12-18T13:56:31;17.13;;;15.33;;
8102;SDS011;4094;49.948;11.574;2022-12-18T13:59:09;18.30;;;16.47;;
8102;SDS011;4094;49.948;11.574;2022-12-18T14:02:14;19.03;;;17.23;;
8102;SDS011;4094;49.948;11.574;2022-12-18T14:04:45;18.07;;;16.47;;
8102;SDS011;4094;49.948;11.574;2022-12-18T14:07:16;18.07;;;16.47;;
8102;SDS011;4094;49.948;11.574;2022-12-18T14:09:49;18.07;;;16.33;;
8102;SDS011;4094;49.948;11.574;2022-12-18T14:12:34;18.40;;;16.63;;
8102;SDS011;4094;49.948;11.574;2022-12-18T14:15:25;19.47;;;17.37;;
8102;SDS011;4094;49.948;11.574;2022-12-18T14:18:02;18.23;;;16.47;;
8102;SDS011;4094;49.948;11.574;2022-12-18T14:20:46;19.27;;;17.37;;
8102;SDS011;4094;49.948;11.574;2022-12-18T14:23:27;17.97;;;16.37;;
8102;SDS011;4094;49.948;11.574;2022-12-18T14:25:58;19.03;;;17.13;;
8102;SDS011;4094;49.948;11.574;2022-12-18T14:28:32;19.23;;;17.33;;
8102;SDS011;4094;49.948;11.574;2022-12-18T14:31:03;18.47;;;16.67;;
8102;SDS011;4094;49.948;11.574;2022-12-18T14:33:33;18.17;;;16.37;;
8102;SDS011;4094;49.948;11.574;2022-12-18T14:36:03;19.00;;;17.03;;
8102;SDS011;4094;49.948;11.574;2022-12-18T14:38:34;18.53;;;16.63;;
8102;SDS011;4094;49.948;11.574;2022-12-18T14:41:05;19.67;;;16.97;;
8102;SDS011;4094;49.948;11.574;2022-12-18T14:43:38;20.13;;;17.93;;
8102;SDS011;4094;49.948;11.574;2022-12-18T14:49:00;19.50;;;17.50;;
8102;SDS011;4094;49.948;11.574;2022-12-18T14:51:32;19.57;;;17.60;;
8102;SDS011;4094;49.948;11.574;2022-12-18T14:54:03;18.73;;;16.90;;
8102;SDS011;4094;49.948;11.574;2022-12-18T14:56:35;19.37;;;17.57;;
8102;SDS011;4094;49.948;11.574;2022-12-18T14:59:12;19.37;;;17.57;;
8102;SDS011;4094;49.948;11.574;2022-12-18T15:01:54;18.20;;;16.57;;
8102;SDS011;4094;49.948;11.574;2022-12-18T15:04:29;19.97;;;17.70;;
8102;SDS011;4094;49.948;11.574;2022-12-18T15:07:03;19.23;;;17.27;;
8102;SDS011;4094;49.948;11.574;2022-12-18T15:09:36;19.60;;;17.53;;
8102;SDS011;4094;49.948;11.574;2022-12-18T15:12:15;20.23;;;18.07;;
8102;SDS011;4094;49.948;11.574;2022-12-18T15:14:54;19.47;;;17.60;;
8102;SDS011;4094;49.948;11.574;2022-12-18T15:17:24;23.83;;;17.03;;
8102;SDS011;4094;49.948;11.574;2022-12-18T15:19:58;19.43;;;17.53;;
8102;SDS011;4094;49.948;11.574;2022-12-18T15:22:32;20.63;;;17.93;;
8102;SDS011;4094;49.948;11.574;2022-12-18T15:25:19;18.93;;;17.07;;
8102;SDS011;4094;49.948;11.574;2022-12-18T15:28:13;19.87;;;17.63;;